Hovedside
METAR-TAF:

METAR-TAF

Lufthavner :

Longyearbyen, Norge

Svalbard lufthavn

breddegrad: 78-15N, lengdegrad: 015-28E, høyde over havet: 2 m

Gjeldene værobservasjon

Denne rapporten ble laget for 1 time og 5 minutter siden, klokken 17:50 UTC
Vind 3 kt fra Nordvest, skiftende mellom Vest og Nord
Temperatur 3°C
Luftfuktighet 93%
Trykk 1017 hPa
Sikt 10 km eller mer
Få skyer i en høyde av 1500 ft
Brutte skyer i en høyde av 2500 ft
lett regn

METAR: ENSB 221750Z 32003KT 260V360 9999 -RA FEW015 BKN025 03/02 Q1017 RMK WIND 1400FT 22009KT

Tid: 20:55 (18:55 UTC)

Varsel

Varsel gyldig fra 22. klokken 18 UTC til 23. klokken 18 UTC
Vind 5 kt fra skiftende retning
Sikt 10 km eller mer
Få skyer i en høyde av 500 ft
Brutte skyer i en høyde av 3000 ft
Midlertidig
fra 23. klokken 00 UTC til 23. klokken 06 UTC
Vind 15 kt fra Sørøst
Blir
fra 23. klokken 05 UTC til 23. klokken 07 UTC
Vind 20 kt fra Vest-sørvest

TAF: ENSB 2218/2318 VRB05KT 9999 FEW005 BKN030 TEMPO 2300/2306 13015KT BECMG 2305/2307 24020KT

Værobservasjoner og værvarsel for over 4000 flyplasser (METAR- og TAF-rapporter).

Tilgjengelige stasjoner er representert av de røde og gule prikkene på kartet.

Hold musepekeren over prikken for å se navnet på stasjonen.

Klikk så for å se værobservasjoner og -varsler.

For å forandre kartet kan du klikke på den grønne knappen med svart kryss for å zoome inn, på den grønne knappen med strek for å zoome ut, eller på de grønne pilene for å se tilstøtende kart.


METAR-TAF: